createdAt,value
2019-01-18T00:01:26.559Z,46.80
2019-01-18T00:06:33.472Z,46.70
2019-01-18T00:11:40.895Z,46.80
2019-01-18T00:16:47.202Z,47.40
2019-01-18T00:21:54.079Z,46.70
2019-01-18T00:27:00.792Z,46.70
2019-01-18T00:32:07.422Z,46.70
2019-01-18T00:37:13.573Z,46.70
2019-01-18T00:42:19.601Z,46.70
2019-01-18T00:47:26.592Z,46.60
2019-01-18T00:52:33.682Z,46.70
2019-01-18T00:57:40.412Z,46.60
2019-01-18T01:02:47.534Z,46.60
2019-01-18T01:07:54.252Z,46.60
2019-01-18T01:13:19.138Z,46.70
2019-01-18T01:18:25.472Z,46.30
2019-01-18T01:23:32.330Z,46.00
2019-01-18T01:28:38.162Z,45.90
2019-01-18T01:33:45.076Z,46.20
2019-01-18T01:38:52.947Z,46.20
2019-01-18T01:43:59.482Z,46.10
2019-01-18T01:49:05.719Z,46.20
2019-01-18T01:54:11.508Z,46.20
2019-01-18T01:59:17.731Z,46.20
2019-01-18T02:04:24.881Z,46.20
2019-01-18T02:09:31.023Z,46.10
2019-01-18T02:14:36.610Z,46.10
2019-01-18T02:19:42.543Z,46.10
2019-01-18T02:24:48.995Z,46.10
2019-01-18T02:29:56.736Z,46.10
2019-01-18T02:35:02.203Z,46.20
2019-01-18T02:40:09.242Z,46.00
2019-01-18T02:45:16.932Z,46.00
2019-01-18T02:50:23.183Z,46.00
2019-01-18T02:55:29.856Z,46.10
2019-01-18T03:00:35.643Z,46.20
2019-01-18T03:05:41.443Z,46.20
2019-01-18T03:10:47.913Z,46.30
2019-01-18T03:15:53.742Z,46.30
2019-01-18T03:21:00.113Z,46.30
2019-01-18T03:26:06.263Z,46.20
2019-01-18T03:31:12.830Z,46.20
2019-01-18T03:36:19.252Z,46.20
2019-01-18T03:41:24.715Z,46.20
2019-01-18T03:46:30.466Z,46.20
2019-01-18T03:51:36.282Z,46.30
2019-01-18T03:56:42.972Z,47.00
2019-01-18T04:01:48.983Z,46.30
2019-01-18T04:06:55.263Z,46.30
2019-01-18T04:12:02.381Z,46.30
2019-01-18T04:17:08.776Z,46.30
2019-01-18T04:22:16.133Z,46.40
2019-01-18T04:27:21.933Z,46.40
2019-01-18T04:32:28.672Z,46.40
2019-01-18T04:37:35.463Z,46.40
2019-01-18T04:42:42.633Z,46.30
2019-01-18T04:47:49.095Z,46.40
2019-01-18T04:52:55.214Z,46.30
2019-01-18T04:58:01.009Z,46.40
2019-01-18T05:03:07.493Z,46.30
2019-01-18T05:08:14.211Z,46.50
2019-01-18T05:13:20.613Z,46.40
2019-01-18T05:18:26.712Z,46.50
2019-01-18T05:23:32.701Z,46.50
2019-01-18T05:28:38.792Z,46.50
2019-01-18T05:33:44.666Z,45.80
2019-01-18T05:38:50.572Z,45.70
2019-01-18T05:43:57.003Z,45.70
2019-01-18T05:49:02.871Z,45.60
2019-01-18T05:54:08.712Z,45.90
2019-01-18T05:59:14.734Z,45.40
2019-01-18T06:04:20.954Z,45.40
2019-01-18T06:09:27.723Z,45.20
2019-01-18T06:14:33.583Z,45.20
2019-01-18T06:19:39.302Z,45.20
2019-01-18T06:24:45.079Z,45.20
2019-01-18T06:29:51.994Z,45.00
2019-01-18T06:34:57.732Z,45.40
2019-01-18T06:40:03.322Z,45.40
2019-01-18T06:45:10.532Z,45.40
2019-01-18T06:50:18.482Z,45.40
2019-01-18T06:55:25.293Z,45.40
2019-01-18T07:00:32.845Z,45.60
2019-01-18T07:05:39.373Z,45.60
2019-01-18T07:10:45.503Z,45.70
2019-01-18T07:15:51.511Z,45.50
2019-01-18T07:20:58.092Z,45.50
2019-01-18T07:26:03.884Z,45.80
2019-01-18T07:31:30.131Z,45.80
2019-01-18T07:36:35.832Z,45.80
2019-01-18T07:41:41.592Z,45.80
2019-01-18T07:46:47.142Z,45.80
2019-01-18T07:51:53.145Z,45.80
2019-01-18T07:57:00.042Z,45.90
2019-01-18T08:02:05.750Z,45.90
2019-01-18T08:07:12.832Z,46.00
2019-01-18T08:12:18.582Z,46.70
2019-01-18T08:17:25.062Z,46.10
2019-01-18T08:22:31.012Z,46.10
2019-01-18T08:27:36.842Z,46.30
2019-01-18T08:32:43.374Z,46.10
2019-01-18T08:37:49.083Z,46.20
2019-01-18T08:42:54.661Z,46.20
2019-01-18T08:48:00.912Z,46.00
2019-01-18T08:53:07.913Z,46.00
2019-01-18T08:58:14.192Z,45.90
2019-01-18T09:03:20.503Z,45.60
2019-01-18T09:08:26.904Z,45.60
2019-01-18T09:13:34.184Z,45.60
2019-01-18T09:18:40.062Z,45.60
2019-01-18T09:23:46.382Z,45.50
2019-01-18T09:28:52.003Z,46.00
2019-01-18T09:33:57.842Z,45.50
2019-01-18T09:39:13.434Z,45.60
2019-01-18T09:44:19.623Z,45.40
2019-01-18T09:49:25.112Z,45.50
2019-01-18T09:54:31.269Z,45.10
2019-01-18T09:59:36.733Z,45.10
2019-01-18T10:04:42.972Z,45.10
2019-01-18T10:09:49.742Z,45.50
2019-01-18T10:14:56.072Z,38.60
2019-01-18T10:20:02.392Z,37.90
2019-01-18T10:25:09.854Z,40.90
2019-01-18T10:30:20.652Z,42.20
2019-01-18T10:35:26.542Z,42.50
2019-01-18T10:40:32.383Z,42.70
2019-01-18T10:45:39.722Z,42.80
2019-01-18T10:50:45.962Z,43.00
2019-01-18T10:55:52.703Z,43.10
2019-01-18T11:00:58.250Z,43.10
2019-01-18T11:06:03.993Z,43.40
2019-01-18T11:11:09.752Z,43.30
2019-01-18T11:16:15.671Z,43.30
2019-01-18T11:21:27.163Z,43.30
2019-01-18T11:26:33.579Z,43.50
2019-01-18T11:31:39.034Z,43.20
2019-01-18T11:36:45.672Z,43.00
2019-01-18T11:41:51.185Z,42.80
2019-01-18T11:46:57.712Z,42.80
2019-01-18T11:52:04.332Z,42.50
2019-01-18T11:57:10.292Z,42.30
2019-01-18T12:02:21.919Z,42.10
2019-01-18T12:07:24.003Z,41.90
2019-01-18T12:12:30.005Z,41.70
2019-01-18T12:17:35.994Z,41.60
2019-01-18T12:22:41.622Z,41.40
2019-01-18T12:27:48.772Z,41.30
2019-01-18T12:32:54.689Z,41.30
2019-01-18T12:38:00.533Z,42.00
2019-01-18T12:43:06.233Z,41.40
2019-01-18T12:48:13.972Z,41.30
2019-01-18T12:53:20.072Z,41.80
2019-01-18T12:58:25.812Z,42.10
2019-01-18T13:03:32.196Z,42.90
2019-01-18T13:08:38.443Z,43.10
2019-01-18T13:13:45.273Z,43.40
2019-01-18T13:18:54.302Z,43.60
2019-01-18T13:24:00.014Z,43.70
2019-01-18T13:29:06.392Z,43.80
2019-01-18T13:34:13.352Z,43.90
2019-01-18T13:39:19.112Z,43.80
2019-01-18T13:44:26.345Z,43.60
2019-01-18T13:49:32.262Z,43.30
2019-01-18T13:54:37.473Z,42.90
2019-01-18T13:59:42.944Z,42.70
2019-01-18T14:04:48.433Z,42.40
2019-01-18T14:09:53.966Z,42.50
2019-01-18T14:14:59.714Z,42.50
2019-01-18T14:20:06.562Z,42.80
2019-01-18T14:25:12.352Z,43.10
2019-01-18T14:30:23.364Z,43.10
2019-01-18T14:35:29.243Z,42.80
2019-01-18T14:40:34.924Z,42.50
2019-01-18T14:45:42.193Z,42.70
2019-01-18T14:50:48.083Z,43.60
2019-01-18T14:55:53.803Z,43.60
2019-01-18T15:00:59.423Z,43.60
2019-01-18T15:06:05.452Z,44.00
2019-01-18T15:11:12.536Z,44.00
2019-01-18T15:16:18.343Z,44.10
2019-01-18T15:21:23.914Z,44.00
2019-01-18T15:26:30.233Z,44.00
2019-01-18T15:31:35.891Z,42.50
2019-01-18T15:36:41.443Z,42.00
2019-01-18T15:41:46.992Z,42.90
2019-01-18T15:46:53.043Z,43.20
2019-01-18T15:51:58.734Z,43.20
2019-01-18T15:57:05.172Z,43.20
2019-01-18T16:02:11.213Z,43.40
2019-01-18T16:07:18.012Z,43.40
2019-01-18T16:12:25.191Z,43.60
2019-01-18T16:17:32.743Z,43.70
2019-01-18T16:22:39.093Z,43.90
2019-01-18T16:27:44.763Z,43.90
2019-01-18T16:32:50.483Z,43.90
2019-01-18T16:37:56.411Z,41.80
2019-01-18T16:43:05.582Z,43.60
2019-01-18T16:48:11.432Z,43.10
2019-01-18T16:53:17.002Z,43.10
2019-01-18T16:58:23.012Z,42.70
2019-01-18T17:03:30.503Z,42.50
2019-01-18T17:08:36.524Z,42.40
2019-01-18T17:13:43.063Z,42.40
2019-01-18T17:18:48.972Z,43.00
2019-01-18T17:23:54.611Z,43.00
2019-01-18T17:29:01.838Z,43.10
2019-01-18T17:34:08.793Z,43.00
2019-01-18T17:39:40.663Z,43.00
2019-01-18T17:45:12.794Z,43.00
2019-01-18T17:51:09.147Z,43.10
2019-01-18T17:57:08.433Z,43.30
2019-01-18T18:02:50.452Z,43.30
2019-01-18T18:08:45.392Z,43.30
2019-01-18T18:14:05.942Z,43.40
2019-01-18T18:19:54.352Z,43.40
2019-01-18T18:25:30.842Z,43.60
2019-01-18T18:31:05.704Z,43.90
2019-01-18T18:37:02.695Z,43.80
2019-01-18T18:42:58.233Z,43.70
2019-01-18T18:48:30.414Z,43.90
2019-01-18T18:54:02.672Z,44.20
2019-01-18T18:59:50.675Z,44.00
2019-01-18T19:05:15.521Z,44.10
2019-01-18T19:11:02.798Z,44.10
2019-01-18T19:16:36.052Z,44.30
2019-01-18T19:22:31.891Z,44.70
2019-01-18T19:28:28.252Z,44.80
2019-01-18T19:33:44.072Z,44.90
2019-01-18T19:39:51.543Z,44.90
2019-01-18T19:45:39.292Z,44.70
2019-01-18T19:51:15.483Z,44.70
2019-01-18T19:56:54.226Z,45.20
2019-01-18T20:02:45.092Z,44.40
2019-01-18T20:08:26.244Z,44.30
2019-01-18T20:14:22.622Z,44.50
2019-01-18T20:20:02.333Z,44.60
2019-01-18T20:25:26.174Z,44.70
2019-01-18T20:31:00.752Z,44.90
2019-01-18T20:36:35.721Z,45.00
2019-01-18T20:42:44.095Z,44.90
2019-01-18T20:48:18.954Z,45.10
2019-01-18T20:54:05.823Z,45.30
2019-01-18T20:59:29.442Z,45.20
2019-01-18T21:05:19.128Z,45.10
2019-01-18T21:10:50.372Z,45.30
2019-01-18T21:16:46.974Z,45.30
2019-01-18T21:22:53.492Z,45.30
2019-01-18T21:29:12.693Z,45.30
2019-01-18T21:35:09.553Z,45.30
2019-01-18T21:41:18.156Z,45.30
2019-01-18T21:47:25.428Z,45.30
2019-01-18T21:54:01.446Z,45.30
2019-01-18T22:00:41.415Z,45.30
2019-01-18T22:06:58.059Z,45.30
2019-01-18T22:12:54.950Z,45.40
2019-01-18T22:18:31.469Z,45.30
2019-01-18T22:23:47.453Z,45.30
2019-01-18T22:29:28.424Z,45.40
2019-01-18T22:35:21.284Z,45.40
2019-01-18T22:41:04.460Z,45.60
2019-01-18T22:46:41.810Z,45.60
2019-01-18T22:52:25.272Z,45.40
2019-01-18T22:58:07.920Z,45.40
2019-01-18T23:03:54.740Z,45.40
2019-01-18T23:09:36.930Z,45.60
2019-01-18T23:14:58.450Z,45.40
2019-01-18T23:20:51.890Z,45.50
2019-01-18T23:26:42.850Z,45.30
2019-01-18T23:32:27.672Z,45.30
2019-01-18T23:38:14.040Z,45.30
2019-01-18T23:44:07.570Z,45.40
2019-01-18T23:49:57.611Z,45.40
2019-01-18T23:55:35.272Z,45.40
